createdAt,value
2023-04-08T00:00:06.789Z,14.70
2023-04-08T00:02:39.133Z,13.13
2023-04-08T00:05:10.723Z,14.27
2023-04-08T00:07:39.503Z,13.70
2023-04-08T00:10:10.314Z,13.73
2023-04-08T00:12:39.140Z,15.67
2023-04-08T00:15:08.917Z,15.47
2023-04-08T00:17:37.587Z,14.30
2023-04-08T00:20:09.294Z,14.47
2023-04-08T00:22:38.143Z,13.27
2023-04-08T00:25:09.619Z,14.87
2023-04-08T00:27:38.299Z,14.60
2023-04-08T00:30:08.884Z,13.17
2023-04-08T00:32:38.051Z,13.43
2023-04-08T00:35:09.480Z,13.63
2023-04-08T00:37:38.168Z,13.60
2023-04-08T00:40:08.364Z,12.57
2023-04-08T00:42:37.046Z,13.43
2023-04-08T00:45:07.305Z,13.73
2023-04-08T00:47:37.973Z,11.40
2023-04-08T00:50:12.898Z,12.23
2023-04-08T00:52:41.596Z,14.17
2023-04-08T00:55:10.507Z,11.57
2023-04-08T00:57:39.339Z,14.50
2023-04-08T01:00:09.939Z,14.07
2023-04-08T01:02:49.231Z,14.57
2023-04-08T01:05:30.423Z,16.40
2023-04-08T01:08:06.410Z,14.53
2023-04-08T01:10:41.612Z,14.30
2023-04-08T01:13:15.710Z,14.90
2023-04-08T01:15:46.364Z,14.53
2023-04-08T01:18:18.104Z,14.43
2023-04-08T01:20:50.987Z,16.87
2023-04-08T01:23:34.519Z,15.77
2023-04-08T01:26:05.276Z,14.17
2023-04-08T01:28:38.167Z,14.87
2023-04-08T01:31:08.681Z,15.77
2023-04-08T01:33:38.793Z,14.83
2023-04-08T01:36:10.663Z,16.90
2023-04-08T01:38:41.157Z,15.13
2023-04-08T01:41:13.393Z,13.20
2023-04-08T01:43:44.770Z,14.70
2023-04-08T01:46:16.550Z,16.20
2023-04-08T01:48:47.204Z,14.37
2023-04-08T01:51:18.914Z,14.30
2023-04-08T01:53:47.756Z,12.47
2023-04-08T01:56:18.972Z,12.77
2023-04-08T01:58:54.052Z,12.93
2023-04-08T02:01:28.601Z,15.73
2023-04-08T02:04:00.680Z,12.40
2023-04-08T02:06:31.224Z,11.67
2023-04-08T02:09:02.304Z,10.83
2023-04-08T02:11:32.598Z,9.30
2023-04-08T02:14:01.512Z,11.57
2023-04-08T02:16:40.768Z,10.37
2023-04-08T02:19:17.444Z,11.30
2023-04-08T02:21:51.570Z,10.67
2023-04-08T02:24:22.598Z,11.50
2023-04-08T02:26:53.816Z,10.57
2023-04-08T02:29:23.583Z,11.40
2023-04-08T02:31:57.362Z,10.83
2023-04-08T02:34:27.228Z,11.97
2023-04-08T02:36:58.414Z,10.77
2023-04-08T02:39:33.522Z,9.80
2023-04-08T02:42:03.712Z,10.73
2023-04-08T02:44:32.513Z,10.27
2023-04-08T02:47:05.205Z,10.00
2023-04-08T02:49:37.157Z,9.60
2023-04-08T02:52:06.043Z,7.83
2023-04-08T02:54:34.722Z,9.23
2023-04-08T02:57:07.806Z,7.97
2023-04-08T02:59:37.852Z,8.50
2023-04-08T03:02:08.769Z,7.80
2023-04-08T03:04:37.575Z,7.13
2023-04-08T03:07:08.502Z,8.60
2023-04-08T03:09:39.663Z,8.53
2023-04-08T03:12:09.848Z,6.37
2023-04-08T03:14:38.680Z,7.33
2023-04-08T03:17:07.399Z,9.17
2023-04-08T03:19:36.181Z,7.37
2023-04-08T03:22:04.850Z,6.27
2023-04-08T03:24:33.552Z,7.50
2023-04-08T03:27:02.344Z,6.67
2023-04-08T03:29:32.435Z,6.43
2023-04-08T03:32:01.629Z,7.80
2023-04-08T03:34:30.368Z,7.63
2023-04-08T03:36:59.093Z,6.83
2023-04-08T03:39:27.856Z,9.00
2023-04-08T03:41:56.516Z,11.30
2023-04-08T03:44:25.226Z,7.47
2023-04-08T03:46:55.432Z,11.73
2023-04-08T03:49:24.201Z,5.63
2023-04-08T03:51:52.932Z,7.83
2023-04-08T03:54:21.739Z,5.80
2023-04-08T03:56:51.707Z,6.83
2023-04-08T03:59:20.492Z,5.83
2023-04-08T04:01:49.277Z,5.67
2023-04-08T04:04:19.472Z,5.50
2023-04-08T04:06:48.732Z,5.40
2023-04-08T04:09:17.925Z,4.30
2023-04-08T04:11:46.591Z,5.50
2023-04-08T04:14:15.551Z,5.47
2023-04-08T04:16:44.315Z,5.17
2023-04-08T04:19:13.190Z,4.37
2023-04-08T04:21:43.419Z,5.53
2023-04-08T04:24:13.488Z,3.57
2023-04-08T04:26:42.866Z,4.80
2023-04-08T04:29:11.610Z,4.80
2023-04-08T04:31:40.890Z,4.70
2023-04-08T04:34:09.905Z,6.27
2023-04-08T04:36:42.132Z,5.97
2023-04-08T04:39:12.994Z,4.60
2023-04-08T04:41:44.590Z,6.10
2023-04-08T04:44:13.460Z,6.37
2023-04-08T04:46:42.279Z,6.23
2023-04-08T04:49:10.985Z,6.83
2023-04-08T04:51:39.681Z,6.00
2023-04-08T04:54:11.939Z,6.47
2023-04-08T04:56:40.787Z,6.33
2023-04-08T04:59:09.809Z,6.23
2023-04-08T05:01:41.010Z,6.53
2023-04-08T05:04:09.876Z,5.53
2023-04-08T05:06:38.521Z,6.57
2023-04-08T05:09:07.314Z,6.40
2023-04-08T05:11:37.403Z,6.87
2023-04-08T05:14:07.955Z,7.77
2023-04-08T05:16:37.018Z,7.00
2023-04-08T05:19:05.817Z,6.43
2023-04-08T05:21:35.011Z,6.80
2023-04-08T05:24:03.945Z,6.87
2023-04-08T05:26:33.995Z,7.20
2023-04-08T05:29:06.834Z,4.93
2023-04-08T05:31:35.539Z,4.60
2023-04-08T05:34:04.415Z,4.93
2023-04-08T05:36:33.209Z,5.83
2023-04-08T05:39:03.292Z,5.97
2023-04-08T05:41:33.577Z,4.77
2023-04-08T05:44:03.665Z,5.37
2023-04-08T05:46:32.396Z,6.83
2023-04-08T05:49:01.462Z,4.57
2023-04-08T05:51:30.352Z,5.17
2023-04-08T05:53:59.021Z,8.80
2023-04-08T05:56:27.676Z,4.90
2023-04-08T05:58:56.397Z,14.20
2023-04-08T06:01:26.731Z,14.90
2023-04-08T06:03:56.308Z,11.37
2023-04-08T06:06:26.142Z,9.60
2023-04-08T06:08:55.008Z,9.40
2023-04-08T06:11:23.811Z,6.40
2023-04-08T06:13:52.835Z,6.30
2023-04-08T06:16:21.790Z,21.37
2023-04-08T06:18:53.481Z,20.03
2023-04-08T06:21:23.802Z,16.20
2023-04-08T06:23:57.854Z,15.73
2023-04-08T06:26:28.424Z,10.73
2023-04-08T06:28:58.574Z,11.63
2023-04-08T06:31:27.453Z,10.40
2023-04-08T06:33:58.407Z,16.17
2023-04-08T06:36:28.499Z,11.93
2023-04-08T06:39:27.299Z,11.33
2023-04-08T06:41:59.420Z,11.70
2023-04-08T06:44:38.349Z,10.37
2023-04-08T06:47:13.260Z,21.40
2023-04-08T06:49:43.281Z,12.10
2023-04-08T06:52:14.717Z,12.83
2023-04-08T06:54:43.889Z,12.53
2023-04-08T06:57:12.513Z,14.67
2023-04-08T06:59:41.221Z,17.33
2023-04-08T07:02:09.936Z,14.97
2023-04-08T07:04:38.655Z,18.33
2023-04-08T07:07:09.687Z,21.53
2023-04-08T07:09:38.866Z,20.83
2023-04-08T07:12:07.834Z,23.27
2023-04-08T07:14:37.561Z,22.73
2023-04-08T07:17:07.444Z,28.30
2023-04-08T07:19:36.212Z,28.80
2023-04-08T07:22:04.932Z,29.30
2023-04-08T07:24:35.077Z,29.13
2023-04-08T07:27:03.766Z,30.13
2023-04-08T07:29:34.516Z,33.37
2023-04-08T07:32:03.578Z,31.50
2023-04-08T07:34:32.293Z,30.60
2023-04-08T07:37:02.988Z,33.30
2023-04-08T07:39:31.764Z,28.67
2023-04-08T07:42:02.077Z,30.00
2023-04-08T07:44:30.929Z,32.70
2023-04-08T07:46:59.622Z,30.87
2023-04-08T07:49:28.372Z,30.67
2023-04-08T07:51:57.618Z,29.63
2023-04-08T07:54:26.397Z,30.73
2023-04-08T07:56:55.182Z,29.50
2023-04-08T07:59:25.478Z,28.70
2023-04-08T08:01:55.467Z,28.17
2023-04-08T08:04:25.963Z,29.97
2023-04-08T08:06:54.937Z,25.07
2023-04-08T08:09:26.313Z,25.97
2023-04-08T08:11:54.999Z,24.07
2023-04-08T08:14:26.774Z,23.87
2023-04-08T08:16:55.831Z,27.13
2023-04-08T08:19:24.629Z,21.87
2023-04-08T08:21:56.242Z,21.23
2023-04-08T08:24:26.098Z,21.93
2023-04-08T08:26:54.912Z,19.53
2023-04-08T08:29:25.102Z,17.80
2023-04-08T08:31:53.791Z,16.70
2023-04-08T08:34:22.480Z,15.80
2023-04-08T08:36:51.206Z,16.83
2023-04-08T08:39:19.976Z,15.03
2023-04-08T08:41:48.830Z,15.43
2023-04-08T08:44:17.654Z,18.20
2023-04-08T08:46:49.483Z,15.73
2023-04-08T08:49:18.295Z,14.00
2023-04-08T08:51:49.197Z,14.83
2023-04-08T08:54:18.091Z,15.93
2023-04-08T08:56:51.900Z,14.70
2023-04-08T08:59:20.709Z,15.57
2023-04-08T09:01:50.967Z,14.03
2023-04-08T09:04:22.828Z,13.83
2023-04-08T09:07:10.782Z,14.90
2023-04-08T09:09:58.683Z,13.37
2023-04-08T09:12:28.657Z,14.27
2023-04-08T09:15:08.771Z,14.33
2023-04-08T09:17:41.498Z,13.77
2023-04-08T09:20:12.784Z,12.90
2023-04-08T09:23:02.298Z,13.33
2023-04-08T09:25:33.315Z,12.87
2023-04-08T09:28:03.052Z,13.37
2023-04-08T09:30:34.882Z,14.30
2023-04-08T09:33:07.558Z,12.93
2023-04-08T09:35:37.212Z,12.67
2023-04-08T09:38:06.126Z,12.60
2023-04-08T09:40:36.898Z,13.77
2023-04-08T09:43:10.578Z,13.97
2023-04-08T09:45:44.100Z,14.03
2023-04-08T09:48:19.569Z,14.57
2023-04-08T09:50:53.447Z,14.60
2023-04-08T09:53:35.618Z,14.07
2023-04-08T09:56:11.643Z,13.97
2023-04-08T09:58:47.376Z,13.13
2023-04-08T10:01:22.974Z,13.07
2023-04-08T10:03:58.255Z,12.37
2023-04-08T10:06:32.787Z,13.37
2023-04-08T10:09:04.403Z,15.40
2023-04-08T10:11:34.990Z,22.77
2023-04-08T10:14:04.147Z,14.80
2023-04-08T10:16:36.222Z,13.07
2023-04-08T10:19:43.184Z,13.23
2023-04-08T10:22:48.679Z,14.43
2023-04-08T10:25:34.575Z,13.10
2023-04-08T10:28:29.969Z,13.90
2023-04-08T10:30:59.268Z,14.10
2023-04-08T10:33:39.233Z,14.90
2023-04-08T10:36:15.481Z,15.20
2023-04-08T10:38:44.623Z,16.23
2023-04-08T10:41:21.875Z,14.30
2023-04-08T10:43:51.964Z,15.67
2023-04-08T10:46:21.852Z,17.33
2023-04-08T10:49:02.724Z,15.50
2023-04-08T10:51:35.220Z,16.33
2023-04-08T10:54:08.644Z,16.60
2023-04-08T10:56:38.985Z,17.60
2023-04-08T10:59:07.804Z,18.00
2023-04-08T11:01:45.307Z,16.03
2023-04-08T11:04:17.237Z,14.97
2023-04-08T11:06:48.732Z,16.87
2023-04-08T11:09:18.337Z,17.23
2023-04-08T11:11:48.205Z,16.37
2023-04-08T11:14:22.120Z,14.20
2023-04-08T11:16:53.201Z,15.47
2023-04-08T11:19:22.945Z,17.67
2023-04-08T11:21:53.186Z,15.33
2023-04-08T11:24:23.843Z,13.57
2023-04-08T11:26:52.783Z,16.80
2023-04-08T11:29:22.719Z,15.10
2023-04-08T11:31:52.097Z,15.27
2023-04-08T11:34:25.792Z,15.37
2023-04-08T11:36:58.536Z,16.33
2023-04-08T11:39:27.332Z,17.10
2023-04-08T11:41:57.533Z,14.23
2023-04-08T11:44:33.708Z,15.23
2023-04-08T11:47:03.112Z,17.67
2023-04-08T11:49:46.308Z,15.70
2023-04-08T11:52:16.799Z,18.40
2023-04-08T11:54:46.268Z,16.07
2023-04-08T11:57:16.849Z,16.47
2023-04-08T11:59:46.000Z,16.70
2023-04-08T12:02:14.946Z,17.60
2023-04-08T12:04:43.677Z,18.13
2023-04-08T12:07:12.315Z,19.47
2023-04-08T12:09:42.857Z,22.03
2023-04-08T12:12:11.592Z,21.60
2023-04-08T12:14:40.422Z,21.47
2023-04-08T12:17:09.393Z,20.07
2023-04-08T12:19:38.613Z,20.70
2023-04-08T12:22:07.506Z,23.17
2023-04-08T12:24:36.211Z,21.37
2023-04-08T12:27:07.123Z,21.23
2023-04-08T12:29:36.032Z,25.57
2023-04-08T12:32:06.081Z,23.50
2023-04-08T12:34:35.350Z,25.47
2023-04-08T12:37:04.235Z,23.83
2023-04-08T12:39:34.088Z,24.37
2023-04-08T12:42:03.217Z,22.93
2023-04-08T12:44:33.528Z,24.90
2023-04-08T12:47:02.469Z,23.90
2023-04-08T12:49:39.564Z,23.50
2023-04-08T12:52:15.325Z,25.13
2023-04-08T12:54:44.097Z,24.57
2023-04-08T12:57:12.926Z,23.97
2023-04-08T12:59:42.946Z,25.50
2023-04-08T13:02:11.672Z,26.13
2023-04-08T13:04:40.675Z,26.30
2023-04-08T13:07:09.452Z,26.67
2023-04-08T13:09:38.148Z,29.03
2023-04-08T13:12:07.078Z,28.07
2023-04-08T13:14:36.251Z,28.50
2023-04-08T13:17:10.823Z,31.60
2023-04-08T13:19:39.881Z,28.50
2023-04-08T13:22:08.604Z,34.93
2023-04-08T13:24:37.619Z,31.20
2023-04-08T13:27:07.295Z,31.90
2023-04-08T13:29:36.061Z,33.53
2023-04-08T13:32:06.381Z,32.03
2023-04-08T13:34:35.180Z,33.07
2023-04-08T13:37:04.362Z,31.33
2023-04-08T13:39:33.233Z,32.90
2023-04-08T13:42:02.903Z,33.40
2023-04-08T13:44:33.288Z,34.30
2023-04-08T13:47:02.369Z,34.97
2023-04-08T13:49:32.978Z,33.67
2023-04-08T13:52:01.900Z,34.93
2023-04-08T13:54:31.115Z,34.07
2023-04-08T13:56:59.991Z,31.57
2023-04-08T13:59:31.214Z,33.83
2023-04-08T14:02:00.272Z,31.73
2023-04-08T14:04:29.252Z,31.17
2023-04-08T14:07:01.540Z,29.03
2023-04-08T14:09:31.485Z,28.60
2023-04-08T14:12:00.175Z,27.50
2023-04-08T14:14:28.849Z,29.20
2023-04-08T14:16:57.716Z,32.27
2023-04-08T14:19:26.727Z,27.10
2023-04-08T14:21:55.550Z,28.47
2023-04-08T14:24:25.715Z,28.70
2023-04-08T14:26:54.626Z,27.20
2023-04-08T14:29:26.521Z,24.77
2023-04-08T14:31:56.921Z,25.83
2023-04-08T14:34:28.400Z,26.33
2023-04-08T14:36:57.149Z,25.47
2023-04-08T14:39:29.971Z,24.97
2023-04-08T14:41:58.656Z,21.07
2023-04-08T14:44:27.649Z,21.40
2023-04-08T14:46:57.280Z,21.73
2023-04-08T14:49:26.058Z,20.47
2023-04-08T14:51:55.171Z,21.67
2023-04-08T14:54:23.943Z,22.97
2023-04-08T14:56:54.206Z,21.73
2023-04-08T14:59:22.956Z,25.43
2023-04-08T15:01:53.871Z,24.87
2023-04-08T15:04:23.666Z,23.83
2023-04-08T15:06:54.162Z,21.90
2023-04-08T15:09:23.769Z,21.90
2023-04-08T15:11:54.269Z,20.40
2023-04-08T15:14:23.134Z,21.10
2023-04-08T15:16:52.181Z,21.57
2023-04-08T15:19:21.377Z,19.80
2023-04-08T15:21:50.346Z,20.60
2023-04-08T15:24:20.249Z,21.30
2023-04-08T15:26:49.346Z,22.43
2023-04-08T15:29:22.007Z,21.13
2023-04-08T15:31:53.942Z,19.07
2023-04-08T15:34:22.750Z,20.57
2023-04-08T15:36:52.574Z,22.27
2023-04-08T15:39:22.534Z,20.13
2023-04-08T15:41:51.439Z,19.60
2023-04-08T15:44:22.540Z,17.83
2023-04-08T15:46:52.657Z,23.40
2023-04-08T15:49:25.458Z,16.97
2023-04-08T15:51:54.306Z,15.80
2023-04-08T15:54:22.949Z,16.50
2023-04-08T15:56:51.963Z,17.37
2023-04-08T15:59:48.013Z,19.10
2023-04-08T16:02:16.930Z,18.00
2023-04-08T16:04:46.365Z,18.07
2023-04-08T16:07:24.566Z,18.53
2023-04-08T16:10:18.989Z,17.50
2023-04-08T16:13:26.776Z,18.67
2023-04-08T16:15:57.275Z,17.57
2023-04-08T16:18:26.632Z,20.17
2023-04-08T16:20:55.777Z,18.97
2023-04-08T16:23:24.902Z,19.33
2023-04-08T16:30:48.079Z,83.23
2023-04-08T16:33:42.008Z,48.27
2023-04-08T16:36:38.032Z,22.63
2023-04-08T16:39:06.909Z,20.73
2023-04-08T16:41:36.758Z,20.83
2023-04-08T16:44:05.665Z,95.80
2023-04-08T16:46:35.011Z,24.73
2023-04-08T16:49:05.648Z,20.83
2023-04-08T16:51:34.658Z,23.23
2023-04-08T16:54:04.594Z,21.77
2023-04-08T16:56:33.851Z,23.03
2023-04-08T16:59:03.139Z,26.63
2023-04-08T17:01:32.545Z,23.67
2023-04-08T17:04:01.814Z,25.87
2023-04-08T17:06:34.691Z,27.67
2023-04-08T17:09:04.136Z,26.47
2023-04-08T17:11:33.166Z,28.10
2023-04-08T17:14:02.048Z,30.50
2023-04-08T17:16:31.264Z,27.40
2023-04-08T17:19:00.070Z,27.57
2023-04-08T17:21:29.482Z,28.50
2023-04-08T17:23:59.702Z,31.30
2023-04-08T17:26:28.440Z,28.07
2023-04-08T17:28:57.414Z,34.53
2023-04-08T17:31:26.640Z,34.33
2023-04-08T17:33:56.133Z,29.00
2023-04-08T17:36:25.047Z,28.67
2023-04-08T17:38:53.705Z,26.07
2023-04-08T17:41:38.132Z,25.33
2023-04-08T17:44:15.338Z,22.80
2023-04-08T17:46:45.262Z,25.50
2023-04-08T17:49:35.638Z,26.80
2023-04-08T17:52:10.294Z,23.20
2023-04-08T17:55:03.681Z,25.70
2023-04-08T17:58:27.949Z,26.63
2023-04-08T18:01:10.419Z,25.07
2023-04-08T18:03:44.902Z,26.83
2023-04-08T18:06:19.151Z,25.60
2023-04-08T18:08:48.096Z,25.30
2023-04-08T18:11:16.980Z,29.03
2023-04-08T18:13:48.899Z,29.97
2023-04-08T18:16:23.810Z,26.23
2023-04-08T18:18:56.262Z,28.73
2023-04-08T18:21:27.314Z,25.00
2023-04-08T18:24:23.289Z,28.90
2023-04-08T18:27:04.347Z,32.60
2023-04-08T18:30:57.171Z,27.50
2023-04-08T18:33:31.837Z,28.43
2023-04-08T18:36:24.184Z,31.87
2023-04-08T18:38:53.299Z,32.03
2023-04-08T18:41:25.112Z,34.07
2023-04-08T18:43:54.019Z,34.67
2023-04-08T18:46:51.724Z,29.73
2023-04-08T18:49:25.807Z,32.57
2023-04-08T18:52:02.345Z,34.70
2023-04-08T18:55:24.827Z,32.10
2023-04-08T18:57:53.783Z,34.53
2023-04-08T19:00:23.309Z,29.37
2023-04-08T19:03:13.861Z,30.33
2023-04-08T19:05:44.199Z,27.97
2023-04-08T19:08:15.540Z,29.30
2023-04-08T19:10:59.948Z,28.43
2023-04-08T19:13:37.268Z,32.83
2023-04-08T19:16:37.927Z,29.93
2023-04-08T19:19:10.344Z,28.93
2023-04-08T19:22:07.877Z,32.37
2023-04-08T19:24:49.324Z,31.67
2023-04-08T19:32:06.190Z,31.13
2023-04-08T19:34:49.055Z,29.70
2023-04-08T19:37:40.624Z,31.30
2023-04-08T19:40:40.588Z,31.17
2023-04-08T19:43:37.194Z,31.87
2023-04-08T19:47:33.733Z,32.50
2023-04-08T20:11:04.600Z,32.50
2023-04-08T20:13:45.165Z,30.43
2023-04-08T20:16:24.899Z,29.23
2023-04-08T20:19:17.819Z,35.40
2023-04-08T20:21:54.112Z,34.97
2023-04-08T20:24:26.630Z,37.90
2023-04-08T20:27:08.110Z,36.50
2023-04-08T20:29:55.817Z,40.13
2023-04-08T20:32:26.794Z,29.83
2023-04-08T20:35:03.560Z,34.57
2023-04-08T20:37:51.460Z,34.17
2023-04-08T20:40:24.936Z,39.20
2023-04-08T20:42:56.260Z,38.53
2023-04-08T20:45:39.173Z,37.97
2023-04-08T20:48:14.976Z,33.27
2023-04-08T20:50:51.059Z,30.13
2023-04-08T20:53:24.219Z,30.63
2023-04-08T20:56:23.762Z,28.47
2023-04-08T20:59:00.533Z,30.87
2023-04-08T21:01:45.848Z,28.23
2023-04-08T21:04:36.860Z,29.47
2023-04-08T21:07:17.340Z,30.07
2023-04-08T21:09:50.301Z,30.53
2023-04-08T21:12:20.170Z,28.60
2023-04-08T21:14:52.319Z,30.17
2023-04-08T21:17:26.447Z,27.77
2023-04-08T21:20:07.032Z,30.40
2023-04-08T21:22:47.731Z,35.00
2023-04-08T21:25:19.721Z,34.73
2023-04-08T21:27:50.238Z,38.33
2023-04-08T21:30:27.536Z,35.27
2023-04-08T21:32:58.409Z,42.13
2023-04-08T21:35:29.534Z,41.53
2023-04-08T21:38:03.108Z,40.97
2023-04-08T21:40:32.061Z,36.60
2023-04-08T21:43:00.826Z,32.07
2023-04-08T21:45:30.941Z,31.10
2023-04-08T21:47:59.802Z,33.43
2023-04-08T21:50:28.644Z,29.93
2023-04-08T21:52:57.483Z,32.37
2023-04-08T21:55:27.196Z,33.63
2023-04-08T21:57:56.357Z,39.63
2023-04-08T22:00:25.225Z,37.43
2023-04-08T22:02:55.490Z,33.53
2023-04-08T22:05:36.933Z,35.43
2023-04-08T22:08:06.166Z,34.77
2023-04-08T22:10:34.967Z,36.50
2023-04-08T22:13:03.846Z,33.70
2023-04-08T22:15:32.570Z,31.60
2023-04-08T22:18:02.855Z,33.77
2023-04-08T22:20:31.916Z,33.43
2023-04-08T22:23:00.792Z,31.43
2023-04-08T22:25:29.619Z,32.90
2023-04-08T22:27:58.606Z,33.97
2023-04-08T22:30:27.343Z,35.70
2023-04-08T22:32:56.185Z,32.47
2023-04-08T22:35:26.506Z,33.13
2023-04-08T22:37:55.413Z,30.97
2023-04-08T22:40:24.670Z,35.93
2023-04-08T22:42:54.792Z,34.07
2023-04-08T22:46:15.995Z,37.60
2023-04-08T22:48:44.839Z,31.00
2023-04-08T22:51:15.173Z,31.23
2023-04-08T22:53:44.049Z,32.67
2023-04-08T22:56:12.886Z,32.93
2023-04-08T22:58:41.732Z,36.13
2023-04-08T23:01:17.203Z,35.07
2023-04-08T23:03:46.514Z,31.70
2023-04-08T23:11:01.814Z,34.57
2023-04-08T23:13:30.646Z,34.87
2023-04-08T23:15:59.731Z,34.20
2023-04-08T23:18:28.629Z,33.40
2023-04-08T23:20:59.141Z,33.03
2023-04-08T23:23:27.979Z,36.00
2023-04-08T23:25:56.744Z,33.73
2023-04-08T23:28:26.989Z,32.57
2023-04-08T23:30:55.921Z,32.67
2023-04-08T23:33:24.790Z,33.00
2023-04-08T23:35:53.591Z,35.90
2023-04-08T23:38:22.402Z,37.13
2023-04-08T23:40:52.772Z,32.93
2023-04-08T23:43:21.590Z,35.27
2023-04-08T23:45:55.376Z,31.33
2023-04-08T23:48:52.454Z,32.90
2023-04-08T23:51:47.378Z,31.47
2023-04-08T23:54:17.410Z,32.37
2023-04-08T23:56:47.278Z,31.70
2023-04-08T23:59:16.212Z,32.77
